Weather History for KFMM - May, 2013

Change the Weather History Date:

Friday, May 3, 2013

  Actual Average (KAKO) Record (KAKO)
Temperature  
Mean Temperature 44 °F 53 °F  
Max Temperature 64 °F 67 °F 91 °F (1949)
Min Temperature 24 °F 39 °F 24 °F (1954)
Degree Days  
Heating Degree Days 21    
Month to date heating degree days  
Cooling Degree Days 0    
Month to date cooling degree days  
Moisture  
Dew Point 21 °F    
Average Humidity 50    
Maximum Humidity 89    
Minimum Humidity 14    
Precipitation  
Precipitation 0.00 in 0.08 in 1.25 in (1987)
Month to date precipitation 0.23  
Year to date precipitation 3.49  
Sea Level Pressure  
Sea Level Pressure 30.22 in    
Wind  
Wind Speed 6 mph (NNW)    
Max Wind Speed 17 mph    
Max Gust Speed 24 mph    
Visibility 10 miles    
Events      
T = Trace of Precipitation, MM = Missing Value Source: NWS Daily Summary

Daily Weather History Graph

Daily Weather History Graph

Search for Another Location

Airport or City:

Trip Planner

Search our weather history database for the weather conditions in past years. The results will help you decide how hot, cold, wet, or windy it might be!

Date:

Astronomy

May. 03, 2013 Rise Set
Actual Time 5:51 AM MDT 7:52 PM MDT
Civil Twilight 5:22 AM MDT 8:22 PM MDT
Nautical Twilight 4:45 AM MDT 8:59 PM MDT
Astronomical Twilight 4:06 AM MDT 9:38 PM MDT
Moon 2:18 AM MDT 1:49 PM MDT
Length of Visible Light 15h 00m
Length of Day
14h 01m
Last Quarter, 36% of the Moon is Illuminated
May 3
Last Quarter
May 9
New
May 17
First Quarter
May 24
Full
May 31
Last Quarter

Hourly Weather History & Observations

Time (MDT) Temp. Windchill Dew Point Humidity Pressure Visibility Wind Dir Wind Speed Gust Speed Precip Events Conditions
12:15 AM 31.1 °F 24.5 °F 21.9 °F 69% 30.41 in 10.0 mi WNW 6.9 mph - N/A   Clear
12:35 AM 30.0 °F 25.2 °F 22.1 °F 72% 30.41 in 10.0 mi WNW 4.6 mph - N/A   Clear
12:55 AM 29.5 °F - 21.9 °F 73% 30.40 in 10.0 mi Calm Calm - N/A   Clear
1:15 AM 29.7 °F - 22.1 °F 73% 30.39 in 10.0 mi Calm Calm - N/A   Clear
1:35 AM 28.2 °F - 21.7 °F 77% 30.38 in 10.0 mi Calm Calm - N/A   Clear
1:55 AM 30.2 °F 25.4 °F 21.2 °F 69% 30.37 in 10.0 mi West 4.6 mph - N/A   Clear
2:15 AM 28.2 °F 23.1 °F 21.7 °F 77% 30.37 in 10.0 mi WSW 4.6 mph - N/A   Clear
2:35 AM 27.7 °F 23.8 °F 21.4 °F 77% 30.37 in 10.0 mi WSW 3.5 mph - N/A   Clear
2:55 AM 26.6 °F 21.2 °F 21.4 °F 81% 30.36 in 10.0 mi West 4.6 mph - N/A   Clear
3:15 AM 27.7 °F 22.4 °F 22.6 °F 81% 30.36 in 10.0 mi West 4.6 mph - N/A   Clear
3:35 AM 26.4 °F 20.9 °F 21.9 °F 83% 30.35 in 10.0 mi West 4.6 mph - N/A   Clear
3:55 AM 26.1 °F 20.5 °F 22.1 °F 85% 30.34 in 10.0 mi West 4.6 mph - N/A   Clear
4:15 AM 26.4 °F 19.8 °F 21.9 °F 83% 30.34 in 10.0 mi West 5.8 mph - N/A   Clear
4:35 AM 25.7 °F 20.1 °F 21.6 °F 84% 30.33 in 10.0 mi West 4.6 mph - N/A   Clear
4:55 AM 26.4 °F 20.9 °F 21.7 °F 82% 30.33 in 10.0 mi West 4.6 mph - N/A   Clear
5:15 AM 26.1 °F 21.9 °F 21.9 °F 84% 30.32 in 10.0 mi West 3.5 mph - N/A   Clear
5:35 AM 26.1 °F 20.5 °F 21.7 °F 84% 30.31 in 10.0 mi West 4.6 mph - N/A   Clear
5:55 AM 24.1 °F 15.2 °F 21.0 °F 88% 30.31 in 10.0 mi West 8.1 mph - N/A   Clear
6:15 AM 24.3 °F 17.3 °F 21.4 °F 89% 30.31 in 10.0 mi West 5.8 mph - N/A   Clear
6:35 AM 25.5 °F - 22.8 °F 89% 30.31 in 10.0 mi Calm Calm - N/A   Clear
6:55 AM 28.2 °F - 25.2 °F 88% 30.30 in 10.0 mi Calm Calm - N/A   Clear
7:15 AM 30.0 °F 25.2 °F 26.8 °F 88% 30.30 in 10.0 mi West 4.6 mph - N/A   Clear
7:35 AM 32.4 °F 25.3 °F 29.3 °F 88% 30.29 in 10.0 mi West 8.1 mph - N/A   Clear
7:55 AM 34.7 °F 28.1 °F 30.4 °F 84% 30.29 in 10.0 mi West 8.1 mph - N/A   Clear
8:15 AM 36.3 °F 30.1 °F 30.7 °F 80% 30.28 in 10.0 mi WSW 8.1 mph - N/A   Clear
8:35 AM 38.7 °F 32.9 °F 30.7 °F 73% 30.28 in 10.0 mi West 8.1 mph - N/A   Clear
8:55 AM 41.5 °F 35.9 °F 29.3 °F 62% 30.26 in 10.0 mi West 9.2 mph - N/A   Clear
9:15 AM 44.6 °F 39.2 °F 27.5 °F 51% 30.25 in 10.0 mi West 10.4 mph - N/A   Clear
9:35 AM 46.4 °F 41.5 °F 29.3 °F 51% 30.24 in 10.0 mi West 10.4 mph - N/A   Clear
9:55 AM 48.7 °F - 27.9 °F 44% 30.24 in 10.0 mi West 10.4 mph - N/A   Clear
10:15 AM 51.3 °F - 24.8 °F 36% 30.23 in 10.0 mi West 9.2 mph - N/A   Clear
10:35 AM 53.1 °F - 22.8 °F 31% 30.23 in 10.0 mi West 5.8 mph - N/A   Clear
10:55 AM 53.6 °F - 21.9 °F 29% 30.22 in 10.0 mi SW 3.5 mph - N/A   Clear
11:15 AM 55.8 °F - 21.6 °F 27% 30.21 in 10.0 mi Calm Calm - N/A   Clear
11:35 AM 55.9 °F - 21.6 °F 26% 30.20 in 10.0 mi Calm Calm - N/A   Clear
11:55 AM 59.0 °F - 18.3 °F 21% 30.19 in 10.0 mi NNE 8.1 mph - N/A   Clear
12:15 PM 58.6 °F - 17.6 °F 20% 30.18 in 10.0 mi NE 8.1 mph - N/A   Clear
12:35 PM 59.9 °F - 17.6 °F 19% 30.18 in 10.0 mi North 10.4 mph 17.3 mph N/A   Clear
12:55 PM 61.0 °F - 16.7 °F 18% 30.17 in 10.0 mi North 10.4 mph - N/A   Clear
1:15 PM 61.2 °F - 14.7 °F 16% 30.16 in 10.0 mi North 9.2 mph 19.6 mph N/A   Clear
1:35 PM 61.9 °F - 15.3 °F 16% 30.15 in 10.0 mi North 15.0 mph - N/A   Clear
1:55 PM 62.1 °F - 15.1 °F 16% 30.15 in 10.0 mi North 11.5 mph 18.4 mph N/A   Clear
2:15 PM 62.8 °F - 15.1 °F 16% 30.14 in 10.0 mi North 12.7 mph 19.6 mph N/A   Clear
2:35 PM 63.5 °F - 14.7 °F 15% 30.14 in 10.0 mi NW 13.8 mph 19.6 mph N/A   Clear
2:55 PM 63.9 °F - 13.8 °F 14% 30.12 in 10.0 mi NNW 8.1 mph 18.4 mph N/A   Clear
3:15 PM 64.4 °F - 13.8 °F 14% 30.12 in 10.0 mi NNW 12.7 mph 19.6 mph N/A   Clear
3:35 PM 63.3 °F - 13.1 °F 14% 30.11 in 10.0 mi North 5.8 mph 13.8 mph N/A   Clear
3:55 PM 64.2 °F - 13.6 °F 14% 30.10 in 10.0 mi North 10.4 mph 20.7 mph N/A   Clear
4:15 PM 63.9 °F - 13.1 °F 14% 30.10 in 10.0 mi North 17.3 mph 20.7 mph N/A   Clear
4:35 PM 63.1 °F - 13.3 °F 14% 30.09 in 10.0 mi North 10.4 mph 21.9 mph N/A   Clear
4:55 PM 63.0 °F - 14.0 °F 15% 30.08 in 10.0 mi North 15.0 mph 21.9 mph N/A   Clear
5:15 PM 62.2 °F - 14.5 °F 16% 30.08 in 10.0 mi North 13.8 mph 20.7 mph N/A   Clear
5:35 PM 61.9 °F - 15.4 °F 16% 30.08 in 10.0 mi NNE 15.0 mph 24.2 mph N/A   Clear
5:55 PM 60.4 °F - 15.8 °F 18% 30.09 in 10.0 mi North 13.8 mph 20.7 mph N/A   Clear
6:15 PM 59.7 °F - 16.9 °F 19% 30.09 in 10.0 mi NE 11.5 mph - N/A   Clear
6:35 PM 58.5 °F - 18.5 °F 21% 30.08 in 10.0 mi NE 10.4 mph - N/A   Clear
6:55 PM 57.4 °F - 19.9 °F 23% 30.09 in 10.0 mi ENE 10.4 mph - N/A   Clear
7:15 PM 54.7 °F - 20.7 °F 27% 30.10 in 10.0 mi ENE 8.1 mph - N/A   Clear
7:35 PM 52.3 °F - 21.4 °F 30% 30.10 in 10.0 mi ENE 8.1 mph - N/A   Clear
7:55 PM 48.7 °F - 22.5 °F 36% 30.11 in 10.0 mi NE 8.1 mph - N/A   Clear
8:15 PM 46.0 °F 41.9 °F 23.2 °F 41% 30.11 in 10.0 mi NE 8.1 mph - N/A   Clear
8:35 PM 43.2 °F 39.7 °F 23.9 °F 47% 30.12 in 10.0 mi NE 5.8 mph - N/A   Clear
8:55 PM 43.0 °F 38.8 °F 24.3 °F 48% 30.13 in 10.0 mi ENE 6.9 mph - N/A   Clear
9:15 PM 40.5 °F 34.6 °F 25.0 °F 54% 30.13 in 10.0 mi ENE 9.2 mph - N/A   Clear
9:35 PM 40.3 °F 35.5 °F 25.7 °F 56% 30.14 in 10.0 mi ENE 6.9 mph - N/A   Clear
9:55 PM 40.3 °F 38.2 °F 26.1 °F 57% 30.15 in 10.0 mi ENE 3.5 mph - N/A   Clear
10:15 PM 40.1 °F 38.0 °F 26.2 °F 58% 30.14 in 10.0 mi ENE 3.5 mph - N/A   Clear
10:35 PM 41.0 °F 39.0 °F 26.6 °F 57% 30.15 in 10.0 mi East 3.5 mph - N/A   Clear
10:55 PM 41.9 °F - 26.6 °F 55% 30.14 in 10.0 mi Calm Calm - N/A   Clear
11:15 PM 41.5 °F - 26.4 °F 55% 30.14 in 10.0 mi Calm Calm - N/A   Clear
11:35 PM 41.0 °F - 26.2 °F 56% 30.14 in 10.0 mi Calm Calm - N/A   Clear
11:55 PM 39.2 °F - 26.2 °F 60% 30.14 in 10.0 mi Calm Calm - N/A   Clear